Terminal Aerodrome Forecast
Issued by NWS Bismarck, ND

Home | Current Version | Previous Version | Graphics & Text | Print | Product List | Glossary On
Versions: 1 2 3 4 5 6 7 8 9 10 11 12 13 14 15 16 17 18 19 20 21 22 23 24
000
FTUS43 KBIS 020635 AAB
TAFISN
TAF AMD
KISN 020635Z 0207/0306 VRB03KT P6SM VCTS BKN080CB
     FM020900 34002KT 5SM FU BKN030
     FM021800 33010KT 5SM FU VCSH SCT060
     FM030000 35008KT P6SM SKC=

USA.gov is the U.S. government's official web portal to all federal, state and local government web resources and services.